Time;durP1;ratioP1;P1;durP2;ratioP2;P2;SDS_P1;SDS_P2;PMS_P1;PMS_P2;Temp;Humidity;BMP_temperature;BMP_pressure;BME280_temperature;BME280_humidity;BME280_pressure;Samples;Min_cycle;Max_cycle;Signal;HPM_P1;HPM_P2
2021/09/03 00:01:28;;;;;;;8.20;3.47;;;;;;;15.29;98.60;101757.53;4991543;28;20502;-69
2021/09/03 00:03:53;;;;;;;6.93;3.40;;;;;;;15.22;98.36;101746.53;5009790;28;20113;-69
2021/09/03 00:06:19;;;;;;;7.97;3.30;;;;;;;15.19;98.77;101734.44;5009848;28;20075;-68
2021/09/03 00:08:44;;;;;;;6.38;2.72;;;;;;;15.15;98.53;101735.53;5010519;28;20037;-70
2021/09/03 00:11:11;;;;;;;6.90;2.95;;;;;;;15.10;98.82;101733.88;5008123;28;20046;-70
2021/09/03 00:13:36;;;;;;;7.55;3.00;;;;;;;15.03;98.94;101727.53;5008739;28;20022;-69
2021/09/03 00:16:02;;;;;;;6.70;3.05;;;;;;;15.08;98.99;101732.66;5009515;28;20138;-70
2021/09/03 00:18:27;;;;;;;7.35;2.90;;;;;;;15.07;98.61;101728.41;5009434;28;20034;-70
2021/09/03 00:20:53;;;;;;;7.88;3.45;;;;;;;15.11;98.56;101724.63;5008963;28;20042;-71
2021/09/03 00:23:18;;;;;;;6.18;2.97;;;;;;;15.09;98.62;101735.06;5009799;28;20156;-67
2021/09/03 00:25:45;;;;;;;9.23;3.35;;;;;;;15.03;98.59;101720.19;5001944;28;20117;-69
2021/09/03 00:28:11;;;;;;;6.53;2.97;;;;;;;15.08;98.62;101725.31;5013055;28;20037;-70
2021/09/03 00:30:36;;;;;;;7.10;3.08;;;;;;;15.07;98.64;101717.56;4994878;28;20045;-69
2021/09/03 00:33:02;;;;;;;9.40;3.33;;;;;;;15.10;98.54;101716.81;5012733;28;20525;-69
2021/09/03 00:35:27;;;;;;;8.00;3.63;;;;;;;14.93;98.56;101709.13;5013117;28;20038;-70
2021/09/03 00:37:52;;;;;;;6.53;3.38;;;;;;;14.91;98.38;101706.78;5013346;28;20406;-70
2021/09/03 00:40:18;;;;;;;6.38;2.85;;;;;;;14.70;98.88;101700.94;5013329;28;20550;-71
2021/09/03 00:42:43;;;;;;;6.75;2.80;;;;;;;14.77;99.04;101698.34;5012591;28;20037;-69
2021/09/03 00:45:10;;;;;;;8.10;2.83;;;;;;;14.79;98.92;101695.31;5012537;28;20038;-70
2021/09/03 00:47:36;;;;;;;8.77;3.30;;;;;;;14.78;99.03;101702.66;5013225;28;20037;-69
2021/09/03 00:50:02;;;;;;;7.88;3.22;;;;;;;14.74;99.42;101703.72;5012939;28;20034;-71
2021/09/03 00:52:28;;;;;;;7.57;2.90;;;;;;;14.66;99.67;101700.06;5011410;28;20038;-70
2021/09/03 00:54:56;;;;;;;6.43;2.85;;;;;;;14.70;99.45;101687.38;5012941;28;20091;-70
2021/09/03 00:57:22;;;;;;;6.70;3.17;;;;;;;14.77;99.42;101697.59;5012563;28;20065;-70
2021/09/03 00:59:53;;;;;;;8.23;3.17;;;;;;;14.71;99.07;101688.94;5013111;28;20038;-70
2021/09/03 01:02:19;;;;;;;10.30;3.38;;;;;;;14.66;99.37;101683.00;5011427;28;20037;-71
2021/09/03 01:04:45;;;;;;;8.30;3.33;;;;;;;14.63;99.42;101687.25;5013088;28;20072;-69
2021/09/03 01:07:11;;;;;;;6.43;3.00;;;;;;;14.59;99.71;101685.59;4987013;28;20034;-70
2021/09/03 01:09:36;;;;;;;6.90;3.17;;;;;;;14.45;99.92;101684.16;5011736;28;20585;-70
2021/09/03 01:12:02;;;;;;;9.20;4.10;;;;;;;14.47;99.94;101681.09;5011273;28;20041;-69
2021/09/03 01:14:27;;;;;;;8.38;3.40;;;;;;;14.53;100.00;101681.59;5013035;28;20120;-71
2021/09/03 01:16:53;;;;;;;8.57;3.97;;;;;;;14.33;100.00;101675.34;5011991;28;20494;-69
2021/09/03 01:19:18;;;;;;;8.75;3.58;;;;;;;14.48;100.00;101673.75;5011935;28;20041;-69
2021/09/03 01:21:49;;;;;;;8.20;3.50;;;;;;;14.37;100.00;101668.09;5011617;28;20395;-70
2021/09/03 01:24:15;;;;;;;7.82;3.17;;;;;;;14.42;100.00;101665.88;5011762;28;20105;-71
2021/09/03 01:26:40;;;;;;;9.05;3.67;;;;;;;14.44;100.00;101663.59;5012674;28;20116;-69
2021/09/03 01:29:06;;;;;;;8.95;3.22;;;;;;;14.50;100.00;101655.97;5011899;28;20124;-70
2021/09/03 01:31:31;;;;;;;7.22;3.28;;;;;;;14.57;100.00;101652.63;5011484;28;20026;-71
2021/09/03 01:33:57;;;;;;;7.80;3.67;;;;;;;14.55;100.00;101649.47;4985434;28;20076;-69
2021/09/03 01:36:30;;;;;;;9.88;3.83;;;;;;;14.39;100.00;101652.25;5012046;28;20371;-69
2021/09/03 01:38:57;;;;;;;11.00;3.78;;;;;;;14.40;100.00;101646.47;5010529;28;20041;-70
2021/09/03 01:41:23;;;;;;;8.23;3.40;;;;;;;14.35;100.00;101654.91;5011261;28;20052;-70
2021/09/03 01:43:48;;;;;;;10.80;3.75;;;;;;;14.24;100.00;101656.56;5011856;28;20026;-70
2021/09/03 01:46:14;;;;;;;8.70;3.75;;;;;;;14.24;100.00;101648.44;5012374;28;20038;-71
2021/09/03 01:48:39;;;;;;;8.45;3.22;;;;;;;14.34;100.00;101641.72;5011353;28;20410;-69
2021/09/03 01:51:04;;;;;;;10.52;3.65;;;;;;;14.29;100.00;101650.88;5010575;28;20521;-70
2021/09/03 01:53:30;;;;;;;9.75;4.32;;;;;;;14.32;100.00;101643.97;5009280;28;20037;-70
2021/09/03 01:55:56;;;;;;;12.35;3.55;;;;;;;14.25;100.00;101644.56;5012109;28;20041;-69
2021/09/03 01:58:21;;;;;;;9.07;4.00;;;;;;;14.26;100.00;101635.31;4990134;28;20463;-69
2021/09/03 02:00:47;;;;;;;11.57;3.90;;;;;;;14.31;100.00;101643.19;5009379;28;20482;-70
2021/09/03 02:03:14;;;;;;;9.93;3.97;;;;;;;14.36;100.00;101634.00;5010560;28;20065;-70
2021/09/03 02:05:40;;;;;;;7.05;3.15;;;;;;;14.42;100.00;101633.34;5011860;28;20581;-70
2021/09/03 02:08:06;;;;;;;10.77;4.20;;;;;;;14.33;100.00;101630.06;5011561;28;20542;-70
2021/09/03 02:10:32;;;;;;;11.23;3.92;;;;;;;14.31;100.00;101618.81;5010651;28;20034;-71
2021/09/03 02:12:57;;;;;;;11.82;4.10;;;;;;;14.30;100.00;101619.94;5010819;28;20030;-71
2021/09/03 02:15:23;;;;;;;10.07;3.47;;;;;;;14.33;100.00;101621.16;5011397;28;20037;-70
2021/09/03 02:17:48;;;;;;;8.48;3.83;;;;;;;14.34;100.00;101623.50;5011502;28;20038;-71
2021/09/03 02:20:13;;;;;;;9.52;3.40;;;;;;;14.46;100.00;101623.38;5010824;28;20041;-71
2021/09/03 02:22:39;;;;;;;7.25;3.35;;;;;;;14.41;100.00;101626.38;5010417;28;20030;-69
2021/09/03 02:25:05;;;;;;;8.27;3.65;;;;;;;14.48;100.00;101625.72;5010490;28;20065;-70
2021/09/03 02:27:30;;;;;;;8.55;3.50;;;;;;;14.50;100.00;101628.09;5010683;28;20546;-70
2021/09/03 02:29:56;;;;;;;9.18;3.45;;;;;;;14.50;100.00;101626.16;5010553;28;20033;-67
2021/09/03 02:32:22;;;;;;;9.13;3.58;;;;;;;14.55;100.00;101627.78;5010610;28;20541;-70
2021/09/03 02:34:47;;;;;;;8.73;3.50;;;;;;;14.48;100.00;101623.00;5011019;28;20405;-69
2021/09/03 02:37:14;;;;;;;8.10;3.30;;;;;;;14.44;100.00;101614.00;5011341;28;20117;-69
2021/09/03 02:39:40;;;;;;;11.18;3.70;;;;;;;14.45;100.00;101615.59;4987010;28;20121;-70
2021/09/03 02:42:05;;;;;;;9.38;3.70;;;;;;;14.31;100.00;101615.31;5009563;28;20125;-67
2021/09/03 02:44:31;;;;;;;8.73;3.45;;;;;;;14.29;100.00;101607.53;5011458;28;20042;-71
2021/09/03 02:46:56;;;;;;;8.05;3.70;;;;;;;14.22;100.00;101595.75;4992574;28;20038;-71
2021/09/03 02:49:21;;;;;;;6.68;3.33;;;;;;;14.25;100.00;101600.44;5010762;28;20038;-69
2021/09/03 02:51:47;;;;;;;7.15;2.63;;;;;;;14.28;100.00;101600.56;5009496;28;20037;-71
2021/09/03 02:54:12;;;;;;;9.40;3.67;;;;;;;14.21;100.00;101589.53;4979961;28;20030;-71
2021/09/03 02:56:38;;;;;;;9.65;3.42;;;;;;;14.16;100.00;101597.16;4996583;28;20030;-70
2021/09/03 02:59:03;;;;;;;8.38;3.17;;;;;;;14.07;100.00;101594.63;5010380;28;20040;-70
2021/09/03 03:01:29;;;;;;;6.70;2.70;;;;;;;14.03;100.00;101588.34;5010013;28;20032;-69
2021/09/03 03:03:54;;;;;;;6.85;3.17;;;;;;;14.07;100.00;101594.63;5010456;28;20402;-71
2021/09/03 03:06:20;;;;;;;8.20;3.13;;;;;;;14.15;100.00;101579.34;5010034;28;20034;-70
2021/09/03 03:08:46;;;;;;;10.20;3.30;;;;;;;14.00;100.00;101594.50;5011082;28;20242;-70
2021/09/03 03:11:11;;;;;;;7.18;2.92;;;;;;;13.98;100.00;101594.06;5009829;28;20037;-70
2021/09/03 03:13:37;;;;;;;8.82;3.17;;;;;;;14.03;100.00;101596.47;5010254;28;20124;-69
2021/09/03 03:16:03;;;;;;;9.07;3.30;;;;;;;14.14;100.00;101589.38;5008709;28;20038;-69
2021/09/03 03:18:28;;;;;;;7.53;2.97;;;;;;;14.24;100.00;101586.13;5010693;28;20079;-71
2021/09/03 03:20:54;;;;;;;5.50;2.67;;;;;;;14.32;100.00;101582.41;4987970;28;20041;-71
2021/09/03 03:23:19;;;;;;;7.60;3.17;;;;;;;14.39;100.00;101582.56;4992835;28;20088;-70
2021/09/03 03:25:45;;;;;;;8.82;3.13;;;;;;;14.44;100.00;101581.50;5009946;28;20037;-70
2021/09/03 03:28:11;;;;;;;10.32;3.38;;;;;;;14.55;100.00;101579.78;5009738;28;20033;-69
2021/09/03 03:30:37;;;;;;;7.88;3.35;;;;;;;14.58;100.00;101583.69;5009535;28;20116;-71
2021/09/03 03:33:02;;;;;;;7.88;3.13;;;;;;;14.59;100.00;101571.72;5004794;28;20128;-70
2021/09/03 03:35:28;;;;;;;8.75;3.28;;;;;;;14.58;100.00;101570.94;5008631;28;20033;-69
2021/09/03 03:37:54;;;;;;;9.90;3.30;;;;;;;14.61;100.00;101572.16;5009191;28;20080;-68
2021/09/03 03:40:19;;;;;;;8.88;3.35;;;;;;;14.58;100.00;101575.56;5007890;28;20111;-70
2021/09/03 03:42:45;;;;;;;10.82;3.05;;;;;;;14.62;100.00;101566.34;4987381;28;20026;-69
2021/09/03 03:45:11;;;;;;;16.73;3.50;;;;;;;14.70;100.00;101567.28;5008052;28;20530;-69
2021/09/03 03:47:37;;;;;;;11.65;3.75;;;;;;;14.73;100.00;101577.41;5009038;28;20046;-68
2021/09/03 03:50:05;;;;;;;8.07;3.10;;;;;;;14.70;100.00;101561.84;4983229;28;20045;-70
2021/09/03 03:52:30;;;;;;;7.53;3.10;;;;;;;14.80;100.00;101567.47;4991877;28;20589;-69
2021/09/03 03:54:55;;;;;;;7.15;3.47;;;;;;;14.85;100.00;101564.44;5010225;28;20033;-70
2021/09/03 03:57:21;;;;;;;6.20;2.83;;;;;;;14.84;100.00;101551.25;5009541;28;20487;-70
2021/09/03 03:59:46;;;;;;;7.88;3.08;;;;;;;14.77;100.00;101545.72;5009301;28;20114;-68
2021/09/03 04:02:12;;;;;;;7.25;3.47;;;;;;;14.85;100.00;101547.38;5009778;28;20074;-70
2021/09/03 04:04:37;;;;;;;9.88;3.22;;;;;;;14.86;100.00;101541.63;5003713;28;20434;-71
2021/09/03 04:07:03;;;;;;;8.40;3.50;;;;;;;14.83;100.00;101534.19;5010931;28;20064;-69
2021/09/03 04:09:29;;;;;;;8.43;3.50;;;;;;;14.87;100.00;101534.25;5012970;28;20033;-69
2021/09/03 04:11:54;;;;;;;10.07;3.03;;;;;;;14.82;100.00;101534.56;4993651;28;20159;-71
2021/09/03 04:14:20;;;;;;;8.05;3.15;;;;;;;14.88;100.00;101524.97;5010021;28;20064;-71
2021/09/03 04:16:46;;;;;;;9.30;2.97;;;;;;;14.93;100.00;101536.31;5013532;28;20814;-70
2021/09/03 04:19:13;;;;;;;8.80;3.85;;;;;;;14.87;100.00;101526.13;5013080;28;20046;-70
2021/09/03 04:21:39;;;;;;;10.55;3.83;;;;;;;14.87;100.00;101528.81;5011927;28;20038;-70
2021/09/03 04:24:05;;;;;;;9.32;2.95;;;;;;;14.90;100.00;101534.34;5012846;28;20034;-70
2021/09/03 04:26:30;;;;;;;9.52;3.70;;;;;;;14.94;100.00;101523.53;4995573;28;20040;-70
2021/09/03 04:28:56;;;;;;;6.57;3.28;;;;;;;14.97;100.00;101530.94;4990937;28;20049;-69
2021/09/03 04:31:22;;;;;;;7.88;3.53;;;;;;;14.92;100.00;101526.63;5011664;28;20030;-69
2021/09/03 04:33:47;;;;;;;7.97;3.05;;;;;;;14.99;100.00;101531.38;5011787;28;20048;-71
2021/09/03 04:36:13;;;;;;;7.47;3.00;;;;;;;14.97;100.00;101523.59;5013224;28;20033;-71
2021/09/03 04:38:38;;;;;;;8.30;3.30;;;;;;;14.98;100.00;101525.16;5012456;28;20030;-70
2021/09/03 04:41:04;;;;;;;7.85;3.25;;;;;;;15.03;100.00;101529.50;4997800;28;20387;-68
2021/09/03 04:43:29;;;;;;;7.55;3.40;;;;;;;15.02;100.00;101527.94;5012414;28;20042;-70
2021/09/03 04:45:55;;;;;;;11.05;3.60;;;;;;;15.00;100.00;101530.22;4994052;28;20044;-70
2021/09/03 04:48:20;;;;;;;8.07;2.97;;;;;;;15.00;100.00;101528.28;5012629;28;20038;-69
2021/09/03 04:50:46;;;;;;;10.68;3.88;;;;;;;14.99;100.00;101515.88;5031609;22;20530;-66
2021/09/03 04:53:12;;;;;;;11.40;3.15;;;;;;;15.01;100.00;101513.59;4979716;28;20077;-65
2021/09/03 04:55:37;;;;;;;9.35;3.55;;;;;;;15.02;100.00;101519.81;4992793;28;20033;-66
2021/09/03 04:58:03;;;;;;;8.40;2.97;;;;;;;15.12;100.00;101513.75;4993479;28;20034;-68
2021/09/03 05:00:28;;;;;;;7.43;3.50;;;;;;;15.15;100.00;101518.44;4970427;28;20113;-66
2021/09/03 05:02:54;;;;;;;10.85;3.95;;;;;;;15.07;100.00;101524.91;4972723;28;20119;-66
2021/09/03 05:05:19;;;;;;;7.65;3.40;;;;;;;15.06;100.00;101510.56;4973546;28;20093;-67
2021/09/03 05:07:45;;;;;;;11.68;3.40;;;;;;;15.08;100.00;101507.47;4969766;28;20031;-66
2021/09/03 05:10:11;;;;;;;11.43;3.80;;;;;;;15.11;100.00;101510.25;4972563;28;20077;-66
2021/09/03 05:12:38;;;;;;;8.75;3.33;;;;;;;15.15;100.00;101513.03;4972118;28;20034;-66
2021/09/03 05:15:15;;;;;;;9.73;3.97;;;;;;;15.14;100.00;101503.31;4973292;28;20093;-66
2021/09/03 05:17:50;;;;;;;8.90;3.05;;;;;;;15.16;100.00;101506.44;4966291;28;20035;-66
2021/09/03 05:20:16;;;;;;;8.82;3.13;;;;;;;15.21;100.00;101511.56;4971856;28;20038;-67
2021/09/03 05:22:42;;;;;;;12.80;3.97;;;;;;;15.21;100.00;101506.16;4971808;28;20023;-66
2021/09/03 05:25:13;;;;;;;9.70;3.20;;;;;;;15.30;100.00;101504.75;4971888;28;20038;-66
2021/09/03 05:27:40;;;;;;;12.93;4.13;;;;;;;15.30;100.00;101512.09;4971803;28;20078;-66
2021/09/03 05:30:07;;;;;;;8.63;3.72;;;;;;;15.32;100.00;101510.59;4974452;28;20031;-67
2021/09/03 05:32:33;;;;;;;10.40;4.20;;;;;;;15.37;100.00;101504.84;4969725;28;20038;-67
2021/09/03 05:34:58;;;;;;;11.20;3.95;;;;;;;15.42;100.00;101503.78;4971283;28;20053;-67
2021/09/03 05:37:24;;;;;;;11.07;4.05;;;;;;;15.41;100.00;101506.84;4972880;28;20069;-66
2021/09/03 05:39:49;;;;;;;10.50;4.00;;;;;;;15.44;100.00;101500.69;4972352;28;20483;-67
2021/09/03 05:42:15;;;;;;;9.43;3.95;;;;;;;15.51;100.00;101506.22;4992253;28;20031;-68
2021/09/03 05:44:40;;;;;;;8.35;3.83;;;;;;;15.57;100.00;101508.25;4969699;28;20050;-68
2021/09/03 05:47:06;;;;;;;10.40;3.67;;;;;;;15.60;100.00;101498.59;4970801;28;20042;-66
2021/09/03 05:49:31;;;;;;;11.57;3.92;;;;;;;15.61;100.00;101497.44;4969389;28;20109;-66
2021/09/03 05:51:57;;;;;;;12.93;4.03;;;;;;;15.67;100.00;101499.47;4967853;28;20034;-66
2021/09/03 05:54:22;;;;;;;8.02;3.35;;;;;;;15.63;100.00;101500.56;4970741;28;20038;-67
2021/09/03 05:56:48;;;;;;;9.73;4.30;;;;;;;15.67;100.00;101496.75;4970842;28;20066;-67
2021/09/03 05:59:13;;;;;;;9.90;3.63;;;;;;;15.77;100.00;101501.53;4966382;28;20451;-68
2021/09/03 06:01:38;;;;;;;10.32;3.92;;;;;;;15.89;100.00;101500.53;4968908;28;20062;-67
2021/09/03 06:04:04;;;;;;;11.82;3.67;;;;;;;15.92;100.00;101492.41;4970355;28;20023;-66
2021/09/03 06:06:29;;;;;;;9.48;4.15;;;;;;;15.96;100.00;101506.03;4970793;28;20105;-66
2021/09/03 06:08:55;;;;;;;12.73;3.80;;;;;;;15.95;100.00;101505.25;4975514;28;20049;-66
2021/09/03 06:11:25;;;;;;;10.02;3.53;;;;;;;15.99;100.00;101486.25;4970994;28;20081;-66
2021/09/03 06:13:52;;;;;;;13.65;4.53;;;;;;;16.01;100.00;101489.41;4966418;28;20070;-66
2021/09/03 06:16:18;;;;;;;11.77;4.40;;;;;;;16.05;100.00;101485.56;4969905;28;20050;-66
2021/09/03 06:18:43;;;;;;;7.28;3.25;;;;;;;16.14;100.00;101477.91;4971808;28;20039;-66
2021/09/03 06:21:09;;;;;;;10.80;3.70;;;;;;;16.19;100.00;101485.75;4970623;28;20162;-66
2021/09/03 06:23:34;;;;;;;6.00;3.47;;;;;;;16.25;100.00;101483.47;4968657;28;20086;-67
2021/09/03 06:26:00;;;;;;;10.65;3.60;;;;;;;16.30;100.00;101479.66;4970920;28;20046;-66
2021/09/03 06:28:25;;;;;;;12.57;3.85;;;;;;;16.36;100.00;101487.06;4971074;28;20100;-67
2021/09/03 06:30:51;;;;;;;8.10;3.90;;;;;;;16.32;100.00;101477.34;4972279;28;20451;-67
2021/09/03 06:33:16;;;;;;;8.73;3.47;;;;;;;16.34;100.00;101475.03;4966837;28;20038;-66
2021/09/03 06:35:41;;;;;;;11.40;3.50;;;;;;;16.35;100.00;101474.66;4970029;28;20384;-67
2021/09/03 06:38:07;;;;;;;10.57;3.97;;;;;;;16.42;100.00;101471.19;4971297;28;20039;-68
2021/09/03 06:40:32;;;;;;;15.93;3.45;;;;;;;16.51;100.00;101479.88;4970084;28;20039;-66
2021/09/03 06:42:58;;;;;;;8.73;3.58;;;;;;;16.50;100.00;101473.66;4970112;28;20087;-66
2021/09/03 06:45:24;;;;;;;8.93;3.70;;;;;;;16.61;100.00;101479.97;4969740;28;20058;-67
2021/09/03 06:47:49;;;;;;;8.88;3.50;;;;;;;16.63;100.00;101471.44;4971126;28;20026;-66
2021/09/03 06:50:16;;;;;;;10.70;3.38;;;;;;;16.56;100.00;101474.88;4968632;28;20031;-66
2021/09/03 06:52:42;;;;;;;8.23;3.47;;;;;;;16.61;100.00;101476.47;4967973;28;20109;-66
2021/09/03 06:55:08;;;;;;;10.05;3.65;;;;;;;16.70;100.00;101477.75;4970452;28;20139;-66
2021/09/03 06:57:33;;;;;;;6.55;2.88;;;;;;;16.65;100.00;101477.28;4970698;28;20035;-66
2021/09/03 06:59:58;;;;;;;9.43;3.42;;;;;;;16.79;100.00;101482.84;4965944;28;20031;-66
2021/09/03 07:02:24;;;;;;;6.20;2.78;;;;;;;16.79;100.00;101472.75;4970652;28;20042;-68
2021/09/03 07:04:49;;;;;;;7.32;3.13;;;;;;;16.83;100.00;101467.34;4970503;28;20170;-67
2021/09/03 07:07:15;;;;;;;9.50;3.15;;;;;;;16.88;100.00;101466.97;4965674;28;20114;-67
2021/09/03 07:09:40;;;;;;;5.57;3.15;;;;;;;16.96;100.00;101468.59;4970400;28;20170;-67
2021/09/03 07:12:06;;;;;;;11.45;2.88;;;;;;;17.03;100.00;101471.38;4969238;28;20038;-67
2021/09/03 07:14:31;;;;;;;8.15;3.05;;;;;;;17.13;100.00;101470.66;4971509;28;20502;-66
2021/09/03 07:16:57;;;;;;;7.15;2.63;;;;;;;17.07;100.00;101464.03;4970478;28;20038;-66
2021/09/03 07:19:22;;;;;;;7.97;3.42;;;;;;;17.15;100.00;101455.50;4968989;28;20057;-66
2021/09/03 07:21:48;;;;;;;8.63;3.28;;;;;;;17.18;100.00;101456.72;4970560;28;20514;-67
2021/09/03 07:24:13;;;;;;;8.35;2.90;;;;;;;17.26;100.00;101466.47;4970026;28;20027;-67
2021/09/03 07:26:39;;;;;;;10.93;3.03;;;;;;;17.31;100.00;101465.31;4970057;28;20034;-66
2021/09/03 07:29:05;;;;;;;7.53;3.03;;;;;;;17.44;100.00;101459.19;4963955;28;20790;-66
2021/09/03 07:31:33;;;;;;;9.75;3.13;;;;;;;17.54;100.00;101468.59;4969008;28;20510;-66
2021/09/03 07:34:00;;;;;;;9.55;3.20;;;;;;;17.55;100.00;101462.78;4968699;28;20089;-66
2021/09/03 07:36:25;;;;;;;8.90;3.25;;;;;;;17.57;100.00;101459.69;4971116;28;20519;-66
2021/09/03 07:38:51;;;;;;;5.22;2.47;;;;;;;17.70;100.00;101458.97;4971366;28;20038;-66
2021/09/03 07:41:16;;;;;;;6.15;3.13;;;;;;;17.80;100.00;101447.34;4971433;28;20424;-66
2021/09/03 07:43:42;;;;;;;9.48;3.28;;;;;;;17.85;99.72;101455.13;4956241;28;20035;-68
2021/09/03 07:46:07;;;;;;;12.07;3.20;;;;;;;17.87;99.30;101458.25;4975081;28;20063;-67
2021/09/03 07:48:33;;;;;;;8.65;3.08;;;;;;;17.92;99.28;101460.59;4974748;28;20066;-67
2021/09/03 07:50:59;;;;;;;10.88;3.17;;;;;;;18.14;97.97;101455.22;4970841;28;20034;-67
2021/09/03 07:53:24;;;;;;;11.40;3.75;;;;;;;18.24;98.13;101460.69;4966535;28;20417;-68
2021/09/03 07:55:50;;;;;;;9.57;3.28;;;;;;;18.29;97.24;101454.84;4973335;28;20511;-66
2021/09/03 07:58:15;;;;;;;7.82;3.22;;;;;;;18.39;97.03;101448.63;4974559;28;20031;-66
2021/09/03 08:00:40;;;;;;;7.45;3.40;;;;;;;18.48;96.71;101451.00;4971988;28;20479;-67
2021/09/03 08:03:06;;;;;;;9.23;3.17;;;;;;;18.50;96.79;101456.88;4968235;28;20046;-67
2021/09/03 08:05:32;;;;;;;7.95;3.03;;;;;;;18.63;95.92;101452.56;4974408;28;20583;-66
2021/09/03 08:07:58;;;;;;;7.72;3.28;;;;;;;18.52;94.91;101470.91;4974560;28;20046;-67
2021/09/03 08:10:24;;;;;;;9.13;3.13;;;;;;;18.66;94.57;101466.22;4974566;28;20030;-66
2021/09/03 08:12:49;;;;;;;5.05;2.70;;;;;;;18.79;94.82;101464.66;4969855;28;20053;-67
2021/09/03 08:15:15;;;;;;;9.60;3.35;;;;;;;18.96;93.83;101456.84;4974011;28;20042;-67
2021/09/03 08:17:41;;;;;;;12.88;3.30;;;;;;;19.12;92.46;101465.44;4972084;28;20504;-66
2021/09/03 08:20:09;;;;;;;7.25;2.92;;;;;;;19.35;92.18;101468.53;4973455;28;20074;-66
2021/09/03 08:22:35;;;;;;;5.15;2.45;;;;;;;19.38;90.89;101476.72;4967876;28;20034;-66
2021/09/03 08:25:01;;;;;;;9.57;3.08;;;;;;;19.44;91.39;101472.41;4973047;28;20030;-66
2021/09/03 08:27:27;;;;;;;10.20;3.00;;;;;;;19.53;90.74;101478.22;4973617;28;20038;-66
2021/09/03 08:29:53;;;;;;;6.53;3.00;;;;;;;19.52;89.93;101465.75;4972226;28;20085;-67
2021/09/03 08:32:18;;;;;;;7.18;2.83;;;;;;;19.38;89.66;101470.47;4972109;28;20113;-67
2021/09/03 08:34:44;;;;;;;8.15;2.80;;;;;;;19.43;90.22;101459.16;5004039;28;20376;-70
2021/09/03 08:37:10;;;;;;;6.65;2.83;;;;;;;19.66;90.47;101464.94;4972778;28;20038;-66
2021/09/03 08:39:35;;;;;;;12.07;3.13;;;;;;;19.60;88.85;101461.81;4970622;28;20034;-67
2021/09/03 08:42:01;;;;;;;8.15;3.00;;;;;;;19.84;89.44;101451.94;4970542;28;20050;-67
2021/09/03 08:44:30;;;;;;;6.85;2.75;;;;;;;20.10;87.64;101458.84;4972910;28;20468;-67
2021/09/03 08:46:56;;;;;;;7.10;3.20;;;;;;;20.27;86.45;101449.78;4966573;28;20492;-66
2021/09/03 08:49:22;;;;;;;8.95;2.80;;;;;;;20.44;85.75;101457.88;4967655;28;20034;-67
2021/09/03 08:51:48;;;;;;;5.03;2.80;;;;;;;20.62;85.07;101446.78;4973171;28;20080;-66
2021/09/03 08:54:14;;;;;;;8.25;3.17;;;;;;;20.71;83.63;101444.38;4972100;28;20121;-68
2021/09/03 08:56:39;;;;;;;5.63;2.60;;;;;;;20.69;83.56;101447.50;4971592;28;20038;-67
2021/09/03 08:59:05;;;;;;;7.22;2.83;;;;;;;20.72;82.88;101448.66;4970934;28;20113;-67
2021/09/03 09:01:30;;;;;;;8.77;3.15;;;;;;;20.84;82.37;101459.13;4970661;28;20726;-67
2021/09/03 09:03:56;;;;;;;7.15;2.90;;;;;;;20.95;82.75;101456.28;4972736;28;20030;-67
2021/09/03 09:06:25;;;;;;;5.90;3.45;;;;;;;21.15;82.69;101462.78;4968249;28;20045;-67
2021/09/03 09:08:56;;;;;;;5.45;3.00;;;;;;;21.30;81.38;101464.19;4973686;28;20035;-66
2021/09/03 09:11:26;;;;;;;7.38;2.90;;;;;;;21.34;80.73;101457.50;4972270;28;20049;-67
2021/09/03 09:13:52;;;;;;;5.65;2.97;;;;;;;21.52;79.86;101451.81;4960993;28;20125;-68
2021/09/03 09:16:19;;;;;;;6.65;2.88;;;;;;;21.66;80.58;101457.13;4972470;28;20170;-66
2021/09/03 09:18:51;;;;;;;8.73;3.13;;;;;;;21.81;79.17;101455.81;4973303;28;20480;-66
2021/09/03 09:21:30;;;;;;;6.28;3.20;;;;;;;21.91;78.33;101456.84;4972455;28;20034;-67
2021/09/03 09:24:06;;;;;;;6.00;2.95;;;;;;;22.06;75.86;101456.25;4968083;28;20476;-68
2021/09/03 09:26:41;;;;;;;8.60;2.88;;;;;;;22.13;77.58;101458.88;4973197;28;20125;-66
2021/09/03 09:29:20;;;;;;;5.82;3.22;;;;;;;22.34;75.86;101455.03;4975444;28;20046;-67
2021/09/03 09:31:50;;;;;;;6.45;3.38;;;;;;;22.48;75.55;101454.03;4972202;28;20462;-67
2021/09/03 09:34:33;;;;;;;7.70;3.50;;;;;;;22.59;74.96;101455.47;4971686;28;20034;-67
2021/09/03 09:37:03;;;;;;;6.55;3.15;;;;;;;22.57;73.75;101452.34;4971893;28;20042;-66
2021/09/03 09:39:42;;;;;;;7.43;3.25;;;;;;;22.76;73.41;101442.66;4969434;28;20109;-67
2021/09/03 09:42:19;;;;;;;6.13;3.10;;;;;;;22.91;72.42;101441.97;4971663;28;20038;-66
2021/09/03 09:44:44;;;;;;;9.63;3.67;;;;;;;22.96;73.26;101443.44;4970990;28;20037;-66
2021/09/03 09:47:13;;;;;;;8.30;3.25;;;;;;;23.05;72.88;101440.94;4969919;28;20113;-68
2021/09/03 09:49:42;;;;;;;5.55;2.72;;;;;;;23.10;71.66;101448.69;4972232;28;20042;-67
2021/09/03 09:52:08;;;;;;;6.45;3.10;;;;;;;23.29;70.63;101445.19;4971245;28;20101;-69
2021/09/03 09:54:34;;;;;;;8.63;3.45;;;;;;;23.41;70.77;101443.81;4972468;28;20046;-69
2021/09/03 09:57:02;;;;;;;7.10;2.83;;;;;;;23.63;70.17;101439.47;4971634;28;20034;-67
2021/09/03 09:59:30;;;;;;;7.63;3.10;;;;;;;23.45;69.59;101437.06;4965163;28;20432;-68
2021/09/03 10:02:01;;;;;;;6.57;2.90;;;;;;;23.65;70.33;101437.84;4971734;28;20424;-70
2021/09/03 10:04:28;;;;;;;4.82;2.60;;;;;;;23.72;69.23;101437.69;4972367;28;20782;-67
2021/09/03 10:06:57;;;;;;;5.45;2.67;;;;;;;23.87;68.67;101438.13;4971026;28;20062;-67
2021/09/03 10:09:25;;;;;;;4.32;2.42;;;;;;;24.00;66.88;101439.06;4972279;28;20770;-67
2021/09/03 10:11:53;;;;;;;5.95;2.72;;;;;;;23.90;67.73;101435.34;4972063;28;20069;-67
2021/09/03 10:14:25;;;;;;;5.95;2.78;;;;;;;24.10;67.91;101438.03;4967699;28;20030;-67
2021/09/03 10:16:52;;;;;;;5.85;2.90;;;;;;;24.26;65.99;101426.28;4968387;28;20043;-68
2021/09/03 10:19:23;;;;;;;4.93;2.10;;;;;;;24.39;66.53;101427.16;4972344;28;20066;-67
2021/09/03 10:21:49;;;;;;;5.40;2.58;;;;;;;24.50;66.88;101422.94;4976069;28;20558;-66
2021/09/03 10:24:24;;;;;;;7.72;2.60;;;;;;;24.47;65.80;101428.53;4966320;28;20110;-67
2021/09/03 10:26:54;;;;;;;13.68;2.78;;;;;;;24.47;66.80;101426.53;4971775;28;20031;-69
2021/09/03 10:29:22;;;;;;;4.35;2.30;;;;;;;24.64;65.88;101425.31;4972006;28;20074;-67
2021/09/03 10:34:43;;;;;;;6.18;2.50;;;;;;;24.97;65.27;101417.84;4969225;28;20117;-67
2021/09/03 10:37:15;;;;;;;5.53;2.28;;;;;;;25.09;65.06;101419.84;4971422;28;20050;-67
2021/09/03 10:39:43;;;;;;;4.53;2.10;;;;;;;25.13;64.90;101417.00;4971543;28;20050;-67
2021/09/03 10:42:08;;;;;;;3.88;2.00;;;;;;;25.21;64.60;101401.81;4965084;28;20042;-67
2021/09/03 10:45:04;;;;;;;3.42;1.98;;;;;;;25.12;63.86;101407.19;4970690;28;20411;-67
2021/09/03 10:47:33;;;;;;;6.95;2.60;;;;;;;25.40;64.01;101398.91;4970610;28;20043;-67
2021/09/03 10:50:09;;;;;;;4.90;2.47;;;;;;;25.42;62.33;101395.72;4971602;28;20039;-67
2021/09/03 10:52:34;;;;;;;6.90;2.25;;;;;;;25.32;63.18;101394.78;4968825;28;20414;-67
2021/09/03 10:55:00;;;;;;;6.05;2.40;;;;;;;25.44;62.36;101398.81;4969752;28;20118;-68
2021/09/03 10:57:25;;;;;;;5.88;2.58;;;;;;;25.37;62.45;101390.72;4971087;28;20043;-67
2021/09/03 11:00:16;;;;;;;3.80;2.13;;;;;;;25.51;62.42;101393.84;4967465;28;20027;-67
2021/09/03 11:02:41;;;;;;;6.65;2.47;;;;;;;25.11;62.59;101392.63;4966896;28;20070;-67
2021/09/03 11:05:12;;;;;;;6.40;2.28;;;;;;;25.27;62.77;101394.53;4970493;28;20077;-66
2021/09/03 11:07:45;;;;;;;4.53;2.42;;;;;;;25.47;61.93;101397.94;4968136;28;20038;-67
2021/09/03 11:10:19;;;;;;;5.43;2.22;;;;;;;25.63;62.34;101386.81;4970487;28;20062;-68
2021/09/03 11:12:51;;;;;;;6.88;2.55;;;;;;;25.61;61.46;101387.25;4968807;28;20031;-69
2021/09/03 11:15:18;;;;;;;6.68;2.10;;;;;;;25.63;61.60;101395.09;4969942;28;20049;-67
2021/09/03 11:17:44;;;;;;;7.43;2.70;;;;;;;25.75;61.02;101399.84;4968905;28;20026;-69
2021/09/03 11:20:12;;;;;;;3.72;2.33;;;;;;;25.97;61.29;101380.66;4969832;28;20038;-67